sensor_id;sensor_type;location;lat;lon;timestamp;temperature;humidity
16384;DHT22;8301;51.440;6.610;2022-09-13T00:02:25;17.20;99.90
16384;DHT22;8301;51.440;6.610;2022-09-13T00:04:52;17.20;99.90
16384;DHT22;8301;51.440;6.610;2022-09-13T00:07:19;17.20;99.90
16384;DHT22;8301;51.440;6.610;2022-09-13T00:09:46;17.20;99.90
16384;DHT22;8301;51.440;6.610;2022-09-13T00:12:13;17.20;99.90
16384;DHT22;8301;51.440;6.610;2022-09-13T00:14:41;17.20;99.90
16384;DHT22;8301;51.440;6.610;2022-09-13T00:17:08;17.20;99.90
16384;DHT22;8301;51.440;6.610;2022-09-13T00:19:35;17.20;99.90
16384;DHT22;8301;51.440;6.610;2022-09-13T00:22:06;17.20;99.90
16384;DHT22;8301;51.440;6.610;2022-09-13T00:24:34;17.20;99.90
16384;DHT22;8301;51.440;6.610;2022-09-13T00:27:02;17.20;99.90
16384;DHT22;8301;51.440;6.610;2022-09-13T00:29:35;17.20;99.90
16384;DHT22;8301;51.440;6.610;2022-09-13T00:32:08;17.10;99.90
16384;DHT22;8301;51.440;6.610;2022-09-13T00:34:35;17.20;99.90
16384;DHT22;8301;51.440;6.610;2022-09-13T00:37:04;17.20;99.90
16384;DHT22;8301;51.440;6.610;2022-09-13T00:39:31;17.20;99.90
16384;DHT22;8301;51.440;6.610;2022-09-13T00:41:57;17.20;99.90
16384;DHT22;8301;51.440;6.610;2022-09-13T00:47:14;17.20;99.90
16384;DHT22;8301;51.440;6.610;2022-09-13T00:49:41;17.20;99.90
16384;DHT22;8301;51.440;6.610;2022-09-13T00:52:09;17.20;99.90
16384;DHT22;8301;51.440;6.610;2022-09-13T00:54:38;17.20;99.90
16384;DHT22;8301;51.440;6.610;2022-09-13T00:57:05;17.20;99.90
16384;DHT22;8301;51.440;6.610;2022-09-13T00:59:36;17.10;99.90
16384;DHT22;8301;51.440;6.610;2022-09-13T01:02:04;17.10;99.90
16384;DHT22;8301;51.440;6.610;2022-09-13T01:04:32;17.10;99.90
16384;DHT22;8301;51.440;6.610;2022-09-13T01:07:03;17.10;99.90
16384;DHT22;8301;51.440;6.610;2022-09-13T01:09:30;17.10;99.90
16384;DHT22;8301;51.440;6.610;2022-09-13T01:11:59;17.10;99.90
16384;DHT22;8301;51.440;6.610;2022-09-13T01:14:28;17.00;99.90
16384;DHT22;8301;51.440;6.610;2022-09-13T01:16:55;17.00;99.90
16384;DHT22;8301;51.440;6.610;2022-09-13T01:19:22;17.00;99.90
16384;DHT22;8301;51.440;6.610;2022-09-13T01:38:27;16.90;99.90
16384;DHT22;8301;51.440;6.610;2022-09-13T01:43:41;17.00;99.90
16384;DHT22;8301;51.440;6.610;2022-09-13T01:49:11;17.00;99.90
16384;DHT22;8301;51.440;6.610;2022-09-13T01:54:19;17.00;99.90
16384;DHT22;8301;51.440;6.610;2022-09-13T01:57:07;17.10;99.90
16384;DHT22;8301;51.440;6.610;2022-09-13T01:59:37;17.10;99.90
16384;DHT22;8301;51.440;6.610;2022-09-13T02:02:11;17.10;99.90
16384;DHT22;8301;51.440;6.610;2022-09-13T02:04:50;17.10;99.90
16384;DHT22;8301;51.440;6.610;2022-09-13T02:07:23;17.10;99.90
16384;DHT22;8301;51.440;6.610;2022-09-13T02:09:47;17.10;99.90
16384;DHT22;8301;51.440;6.610;2022-09-13T02:12:18;17.20;99.90
16384;DHT22;8301;51.440;6.610;2022-09-13T02:14:42;17.10;99.90
16384;DHT22;8301;51.440;6.610;2022-09-13T02:17:17;17.20;99.90
16384;DHT22;8301;51.440;6.610;2022-09-13T02:19:46;17.20;99.90
16384;DHT22;8301;51.440;6.610;2022-09-13T02:22:10;17.20;99.90
16384;DHT22;8301;51.440;6.610;2022-09-13T02:24:38;17.20;99.90
16384;DHT22;8301;51.440;6.610;2022-09-13T02:27:07;17.20;99.90
16384;DHT22;8301;51.440;6.610;2022-09-13T02:29:40;17.20;99.90
16384;DHT22;8301;51.440;6.610;2022-09-13T02:32:05;17.20;99.90
16384;DHT22;8301;51.440;6.610;2022-09-13T02:37:16;17.20;99.90
16384;DHT22;8301;51.440;6.610;2022-09-13T02:39:50;17.20;99.90
16384;DHT22;8301;51.440;6.610;2022-09-13T02:42:20;17.20;99.90
16384;DHT22;8301;51.440;6.610;2022-09-13T02:44:54;17.20;99.90
16384;DHT22;8301;51.440;6.610;2022-09-13T02:53:00;17.10;99.90
16384;DHT22;8301;51.440;6.610;2022-09-13T02:55:38;17.10;99.90
16384;DHT22;8301;51.440;6.610;2022-09-13T03:00:50;17.10;99.90
16384;DHT22;8301;51.440;6.610;2022-09-13T03:03:17;17.10;99.90
16384;DHT22;8301;51.440;6.610;2022-09-13T03:05:44;17.20;99.90
16384;DHT22;8301;51.440;6.610;2022-09-13T03:08:11;17.20;99.90
16384;DHT22;8301;51.440;6.610;2022-09-13T03:16:18;17.20;99.90
16384;DHT22;8301;51.440;6.610;2022-09-13T03:24:13;17.10;99.90
16384;DHT22;8301;51.440;6.610;2022-09-13T03:26:40;17.00;99.90
16384;DHT22;8301;51.440;6.610;2022-09-13T03:29:25;17.00;99.90
16384;DHT22;8301;51.440;6.610;2022-09-13T03:37:22;16.90;99.90
16384;DHT22;8301;51.440;6.610;2022-09-13T03:40:08;16.80;99.90
16384;DHT22;8301;51.440;6.610;2022-09-13T03:42:42;16.80;99.90
16384;DHT22;8301;51.440;6.610;2022-09-13T03:45:04;16.80;99.90
16384;DHT22;8301;51.440;6.610;2022-09-13T03:47:40;16.80;99.90
16384;DHT22;8301;51.440;6.610;2022-09-13T03:50:09;16.80;99.90
16384;DHT22;8301;51.440;6.610;2022-09-13T03:52:35;16.70;99.90
16384;DHT22;8301;51.440;6.610;2022-09-13T03:55:02;16.70;99.90
16384;DHT22;8301;51.440;6.610;2022-09-13T03:57:29;16.80;99.90
16384;DHT22;8301;51.440;6.610;2022-09-13T03:59:56;16.80;99.90
16384;DHT22;8301;51.440;6.610;2022-09-13T04:02:23;16.70;99.90
16384;DHT22;8301;51.440;6.610;2022-09-13T04:04:51;16.70;99.90
16384;DHT22;8301;51.440;6.610;2022-09-13T04:07:19;16.80;99.90
16384;DHT22;8301;51.440;6.610;2022-09-13T04:09:46;16.80;99.90
16384;DHT22;8301;51.440;6.610;2022-09-13T04:12:13;16.70;99.90
16384;DHT22;8301;51.440;6.610;2022-09-13T04:14:40;16.70;99.90
16384;DHT22;8301;51.440;6.610;2022-09-13T04:17:08;16.70;99.90
16384;DHT22;8301;51.440;6.610;2022-09-13T04:19:37;16.70;99.90
16384;DHT22;8301;51.440;6.610;2022-09-13T04:22:03;16.70;99.90
16384;DHT22;8301;51.440;6.610;2022-09-13T04:24:30;16.70;99.90
16384;DHT22;8301;51.440;6.610;2022-09-13T04:26:57;16.80;99.90
16384;DHT22;8301;51.440;6.610;2022-09-13T04:29:24;16.70;99.90
16384;DHT22;8301;51.440;6.610;2022-09-13T04:31:57;16.70;99.90
16384;DHT22;8301;51.440;6.610;2022-09-13T04:34:26;16.70;99.90
16384;DHT22;8301;51.440;6.610;2022-09-13T04:36:53;16.80;99.90
16384;DHT22;8301;51.440;6.610;2022-09-13T04:39:20;16.70;99.90
16384;DHT22;8301;51.440;6.610;2022-09-13T04:41:47;16.80;99.90
16384;DHT22;8301;51.440;6.610;2022-09-13T04:44:16;16.70;99.90
16384;DHT22;8301;51.440;6.610;2022-09-13T04:46:45;16.70;99.90
16384;DHT22;8301;51.440;6.610;2022-09-13T04:49:18;16.80;99.90
16384;DHT22;8301;51.440;6.610;2022-09-13T04:51:51;16.80;99.90
16384;DHT22;8301;51.440;6.610;2022-09-13T04:54:19;16.80;99.90
16384;DHT22;8301;51.440;6.610;2022-09-13T04:56:47;16.80;99.90
16384;DHT22;8301;51.440;6.610;2022-09-13T04:59:14;16.80;99.90
16384;DHT22;8301;51.440;6.610;2022-09-13T05:01:41;16.80;99.90
16384;DHT22;8301;51.440;6.610;2022-09-13T05:04:08;16.70;99.90
16384;DHT22;8301;51.440;6.610;2022-09-13T05:06:38;16.70;99.90
16384;DHT22;8301;51.440;6.610;2022-09-13T05:09:05;16.70;99.90
16384;DHT22;8301;51.440;6.610;2022-09-13T05:11:32;16.70;99.90
16384;DHT22;8301;51.440;6.610;2022-09-13T05:13:59;16.70;99.90
16384;DHT22;8301;51.440;6.610;2022-09-13T05:16:27;16.70;99.90
16384;DHT22;8301;51.440;6.610;2022-09-13T05:18:55;16.70;99.90
16384;DHT22;8301;51.440;6.610;2022-09-13T05:21:22;16.70;99.90
16384;DHT22;8301;51.440;6.610;2022-09-13T05:23:54;16.70;99.90
16384;DHT22;8301;51.440;6.610;2022-09-13T05:26:21;16.70;99.90
16384;DHT22;8301;51.440;6.610;2022-09-13T05:28:56;16.70;99.90
16384;DHT22;8301;51.440;6.610;2022-09-13T05:31:28;16.70;99.90
16384;DHT22;8301;51.440;6.610;2022-09-13T05:33:53;16.70;99.90
16384;DHT22;8301;51.440;6.610;2022-09-13T05:36:21;16.80;99.90
16384;DHT22;8301;51.440;6.610;2022-09-13T05:38:48;16.70;99.90
16384;DHT22;8301;51.440;6.610;2022-09-13T05:41:20;16.80;99.90
16384;DHT22;8301;51.440;6.610;2022-09-13T05:43:47;16.80;99.90
16384;DHT22;8301;51.440;6.610;2022-09-13T05:46:23;16.80;99.90
16384;DHT22;8301;51.440;6.610;2022-09-13T05:48:50;16.80;99.90
16384;DHT22;8301;51.440;6.610;2022-09-13T05:51:19;16.80;99.90
16384;DHT22;8301;51.440;6.610;2022-09-13T05:53:47;16.90;99.90
16384;DHT22;8301;51.440;6.610;2022-09-13T05:56:19;16.90;99.90
16384;DHT22;8301;51.440;6.610;2022-09-13T05:58:43;16.90;99.90
16384;DHT22;8301;51.440;6.610;2022-09-13T06:01:13;16.90;99.90
16384;DHT22;8301;51.440;6.610;2022-09-13T06:03:40;16.90;99.90
16384;DHT22;8301;51.440;6.610;2022-09-13T06:06:11;17.00;99.90
16384;DHT22;8301;51.440;6.610;2022-09-13T06:08:37;17.00;99.90
16384;DHT22;8301;51.440;6.610;2022-09-13T06:11:09;17.00;99.90
16384;DHT22;8301;51.440;6.610;2022-09-13T06:13:37;17.10;99.90
16384;DHT22;8301;51.440;6.610;2022-09-13T06:16:05;17.10;99.90
16384;DHT22;8301;51.440;6.610;2022-09-13T06:18:32;17.20;99.90
16384;DHT22;8301;51.440;6.610;2022-09-13T06:21:02;17.20;99.90
16384;DHT22;8301;51.440;6.610;2022-09-13T06:23:32;17.20;99.90
16384;DHT22;8301;51.440;6.610;2022-09-13T06:26:04;17.30;99.90
16384;DHT22;8301;51.440;6.610;2022-09-13T06:28:27;17.30;99.90
16384;DHT22;8301;51.440;6.610;2022-09-13T06:31:07;17.30;99.90
16384;DHT22;8301;51.440;6.610;2022-09-13T06:33:48;17.40;99.90
16384;DHT22;8301;51.440;6.610;2022-09-13T06:36:23;17.50;99.90
16384;DHT22;8301;51.440;6.610;2022-09-13T06:38:50;17.60;99.90
16384;DHT22;8301;51.440;6.610;2022-09-13T06:41:18;17.60;99.90
16384;DHT22;8301;51.440;6.610;2022-09-13T06:43:45;17.70;99.90
16384;DHT22;8301;51.440;6.610;2022-09-13T06:46:15;17.70;99.90
16384;DHT22;8301;51.440;6.610;2022-09-13T06:51:19;17.80;99.90
16384;DHT22;8301;51.440;6.610;2022-09-13T06:56:23;18.00;99.90
16384;DHT22;8301;51.440;6.610;2022-09-13T07:01:26;18.10;99.90
16384;DHT22;8301;51.440;6.610;2022-09-13T07:04:01;18.20;99.90
16384;DHT22;8301;51.440;6.610;2022-09-13T07:06:37;18.30;99.90
16384;DHT22;8301;51.440;6.610;2022-09-13T07:09:07;18.30;99.90
16384;DHT22;8301;51.440;6.610;2022-09-13T07:14:13;18.40;99.90
16384;DHT22;8301;51.440;6.610;2022-09-13T07:16:40;18.50;99.90
16384;DHT22;8301;51.440;6.610;2022-09-13T07:19:11;18.60;99.90
16384;DHT22;8301;51.440;6.610;2022-09-13T07:24:03;18.70;99.90
16384;DHT22;8301;51.440;6.610;2022-09-13T07:26:30;18.70;99.90
16384;DHT22;8301;51.440;6.610;2022-09-13T07:29:03;18.80;99.90
16384;DHT22;8301;51.440;6.610;2022-09-13T07:31:26;18.90;99.90
16384;DHT22;8301;51.440;6.610;2022-09-13T07:33:54;18.80;99.90
16384;DHT22;8301;51.440;6.610;2022-09-13T07:36:21;18.90;99.90
16384;DHT22;8301;51.440;6.610;2022-09-13T07:38:50;19.00;99.90
16384;DHT22;8301;51.440;6.610;2022-09-13T07:41:18;19.10;99.90
16384;DHT22;8301;51.440;6.610;2022-09-13T07:43:45;19.30;99.90
16384;DHT22;8301;51.440;6.610;2022-09-13T07:46:12;19.30;99.90
16384;DHT22;8301;51.440;6.610;2022-09-13T07:48:40;19.30;99.90
16384;DHT22;8301;51.440;6.610;2022-09-13T07:51:09;19.30;99.90
16384;DHT22;8301;51.440;6.610;2022-09-13T07:53:37;19.40;99.90
16384;DHT22;8301;51.440;6.610;2022-09-13T07:56:05;19.50;99.90
16384;DHT22;8301;51.440;6.610;2022-09-13T07:58:41;19.50;99.90
16384;DHT22;8301;51.440;6.610;2022-09-13T08:03:37;19.80;99.90
16384;DHT22;8301;51.440;6.610;2022-09-13T08:06:07;19.90;99.90
16384;DHT22;8301;51.440;6.610;2022-09-13T08:08:36;19.80;99.90
16384;DHT22;8301;51.440;6.610;2022-09-13T08:11:04;19.80;99.90
16384;DHT22;8301;51.440;6.610;2022-09-13T08:13:35;19.90;99.90
16384;DHT22;8301;51.440;6.610;2022-09-13T08:16:02;20.00;99.90
16384;DHT22;8301;51.440;6.610;2022-09-13T08:18:32;20.00;99.90
16384;DHT22;8301;51.440;6.610;2022-09-13T08:20:59;20.20;99.90
16384;DHT22;8301;51.440;6.610;2022-09-13T08:23:28;20.20;99.90
16384;DHT22;8301;51.440;6.610;2022-09-13T08:25:59;20.30;99.90
16384;DHT22;8301;51.440;6.610;2022-09-13T08:28:24;20.30;99.90
16384;DHT22;8301;51.440;6.610;2022-09-13T08:30:52;20.50;99.90
16384;DHT22;8301;51.440;6.610;2022-09-13T08:33:20;20.50;99.90
16384;DHT22;8301;51.440;6.610;2022-09-13T08:35:51;20.60;99.90
16384;DHT22;8301;51.440;6.610;2022-09-13T08:38:19;20.70;99.90
16384;DHT22;8301;51.440;6.610;2022-09-13T08:40:52;20.70;99.90
16384;DHT22;8301;51.440;6.610;2022-09-13T08:43:39;20.80;99.90
16384;DHT22;8301;51.440;6.610;2022-09-13T08:45:48;20.90;99.90
16384;DHT22;8301;51.440;6.610;2022-09-13T08:48:13;21.00;99.90
16384;DHT22;8301;51.440;6.610;2022-09-13T08:50:42;21.00;99.90
16384;DHT22;8301;51.440;6.610;2022-09-13T08:53:21;20.90;99.90
16384;DHT22;8301;51.440;6.610;2022-09-13T08:55:49;21.00;99.90
16384;DHT22;8301;51.440;6.610;2022-09-13T08:58:25;21.30;99.90
16384;DHT22;8301;51.440;6.610;2022-09-13T09:00:48;21.60;99.90
16384;DHT22;8301;51.440;6.610;2022-09-13T09:03:27;21.70;99.90
16384;DHT22;8301;51.440;6.610;2022-09-13T09:05:49;21.80;99.90
16384;DHT22;8301;51.440;6.610;2022-09-13T09:08:28;22.00;99.90
16384;DHT22;8301;51.440;6.610;2022-09-13T09:10:56;22.20;99.90
16384;DHT22;8301;51.440;6.610;2022-09-13T09:13:28;22.40;99.90
16384;DHT22;8301;51.440;6.610;2022-09-13T09:18:41;22.70;99.90
16384;DHT22;8301;51.440;6.610;2022-09-13T09:21:11;22.90;99.90
16384;DHT22;8301;51.440;6.610;2022-09-13T09:23:40;22.90;99.90
16384;DHT22;8301;51.440;6.610;2022-09-13T09:26:15;23.00;99.90
16384;DHT22;8301;51.440;6.610;2022-09-13T09:28:52;23.30;99.90
16384;DHT22;8301;51.440;6.610;2022-09-13T09:31:29;23.40;99.90
16384;DHT22;8301;51.440;6.610;2022-09-13T09:33:55;23.40;99.90
16384;DHT22;8301;51.440;6.610;2022-09-13T09:39:06;23.10;99.90
16384;DHT22;8301;51.440;6.610;2022-09-13T09:41:34;23.30;99.90
16384;DHT22;8301;51.440;6.610;2022-09-13T09:44:19;23.40;99.90
16384;DHT22;8301;51.440;6.610;2022-09-13T09:46:49;23.50;99.90
16384;DHT22;8301;51.440;6.610;2022-09-13T09:49:25;23.70;99.90
16384;DHT22;8301;51.440;6.610;2022-09-13T09:52:07;23.80;99.90
16384;DHT22;8301;51.440;6.610;2022-09-13T09:57:06;24.00;99.90
16384;DHT22;8301;51.440;6.610;2022-09-13T09:59:34;23.70;99.90
16384;DHT22;8301;51.440;6.610;2022-09-13T10:02:10;23.80;99.90
16384;DHT22;8301;51.440;6.610;2022-09-13T10:04:32;23.90;99.90
16384;DHT22;8301;51.440;6.610;2022-09-13T10:07:20;24.10;99.90
16384;DHT22;8301;51.440;6.610;2022-09-13T10:09:51;24.10;99.90
16384;DHT22;8301;51.440;6.610;2022-09-13T10:12:11;23.70;99.90
16384;DHT22;8301;51.440;6.610;2022-09-13T10:14:52;23.90;99.90
16384;DHT22;8301;51.440;6.610;2022-09-13T10:17:25;24.10;99.90
16384;DHT22;8301;51.440;6.610;2022-09-13T10:19:54;24.30;99.90
16384;DHT22;8301;51.440;6.610;2022-09-13T10:22:30;24.20;99.90
16384;DHT22;8301;51.440;6.610;2022-09-13T10:27:47;24.70;99.90
16384;DHT22;8301;51.440;6.610;2022-09-13T10:30:34;24.50;99.90
16384;DHT22;8301;51.440;6.610;2022-09-13T10:33:00;24.10;99.90
16384;DHT22;8301;51.440;6.610;2022-09-13T10:35:28;23.90;99.90
16384;DHT22;8301;51.440;6.610;2022-09-13T10:38:01;24.20;99.90
16384;DHT22;8301;51.440;6.610;2022-09-13T10:42:55;24.30;99.90
16384;DHT22;8301;51.440;6.610;2022-09-13T10:58:22;25.20;99.90
16384;DHT22;8301;51.440;6.610;2022-09-13T12:04:58;25.90;99.90
16384;DHT22;8301;51.440;6.610;2022-09-13T12:07:28;26.00;99.90
16384;DHT22;8301;51.440;6.610;2022-09-13T12:10:05;25.90;99.90
16384;DHT22;8301;51.440;6.610;2022-09-13T12:20:29;26.00;99.90
16384;DHT22;8301;51.440;6.610;2022-09-13T12:46:54;26.60;99.90
16384;DHT22;8301;51.440;6.610;2022-09-13T14:07:15;26.20;99.90
16384;DHT22;8301;51.440;6.610;2022-09-13T14:09:46;26.00;99.90
16384;DHT22;8301;51.440;6.610;2022-09-13T14:20:22;25.90;99.90
16384;DHT22;8301;51.440;6.610;2022-09-13T14:23:09;26.20;99.90
16384;DHT22;8301;51.440;6.610;2022-09-13T14:25:25;26.20;99.90
16384;DHT22;8301;51.440;6.610;2022-09-13T15:15:59;25.00;99.90
16384;DHT22;8301;51.440;6.610;2022-09-13T15:18:30;25.10;99.90
16384;DHT22;8301;51.440;6.610;2022-09-13T15:21:01;25.00;99.90
16384;DHT22;8301;51.440;6.610;2022-09-13T15:23:38;25.00;99.90
16384;DHT22;8301;51.440;6.610;2022-09-13T15:31:20;24.70;99.90
16384;DHT22;8301;51.440;6.610;2022-09-13T15:33:47;24.60;99.90
16384;DHT22;8301;51.440;6.610;2022-09-13T15:41:27;24.60;99.90
16384;DHT22;8301;51.440;6.610;2022-09-13T15:43:53;24.70;99.90
16384;DHT22;8301;51.440;6.610;2022-09-13T15:48:51;24.50;99.90
16384;DHT22;8301;51.440;6.610;2022-09-13T15:51:19;24.30;99.90
16384;DHT22;8301;51.440;6.610;2022-09-13T15:53:48;24.20;99.90
16384;DHT22;8301;51.440;6.610;2022-09-13T15:56:17;24.20;99.90
16384;DHT22;8301;51.440;6.610;2022-09-13T15:58:47;24.20;99.90
16384;DHT22;8301;51.440;6.610;2022-09-13T16:01:14;24.30;99.90
16384;DHT22;8301;51.440;6.610;2022-09-13T16:03:41;24.20;99.90
16384;DHT22;8301;51.440;6.610;2022-09-13T16:06:08;24.20;99.90
16384;DHT22;8301;51.440;6.610;2022-09-13T16:08:37;24.30;99.90
16384;DHT22;8301;51.440;6.610;2022-09-13T16:11:04;24.20;99.90
16384;DHT22;8301;51.440;6.610;2022-09-13T16:13:31;24.20;99.90
16384;DHT22;8301;51.440;6.610;2022-09-13T16:15:58;24.30;99.90
16384;DHT22;8301;51.440;6.610;2022-09-13T16:18:25;24.20;99.90
16384;DHT22;8301;51.440;6.610;2022-09-13T16:20:54;24.10;99.90
16384;DHT22;8301;51.440;6.610;2022-09-13T16:23:21;23.90;99.90
16384;DHT22;8301;51.440;6.610;2022-09-13T16:25:49;23.80;99.90
16384;DHT22;8301;51.440;6.610;2022-09-13T16:28:17;23.80;99.90
16384;DHT22;8301;51.440;6.610;2022-09-13T16:30:53;23.70;99.90
16384;DHT22;8301;51.440;6.610;2022-09-13T16:33:20;23.70;99.90
16384;DHT22;8301;51.440;6.610;2022-09-13T16:35:47;23.70;99.90
16384;DHT22;8301;51.440;6.610;2022-09-13T16:38:14;23.60;99.90
16384;DHT22;8301;51.440;6.610;2022-09-13T16:40:41;23.60;99.90
16384;DHT22;8301;51.440;6.610;2022-09-13T16:43:10;23.60;99.90
16384;DHT22;8301;51.440;6.610;2022-09-13T16:45:39;23.60;99.90
16384;DHT22;8301;51.440;6.610;2022-09-13T16:48:06;23.60;99.90
16384;DHT22;8301;51.440;6.610;2022-09-13T16:50:37;23.50;99.90
16384;DHT22;8301;51.440;6.610;2022-09-13T16:53:03;23.50;99.90
16384;DHT22;8301;51.440;6.610;2022-09-13T16:55:31;23.50;99.90
16384;DHT22;8301;51.440;6.610;2022-09-13T16:58:02;23.40;99.90
16384;DHT22;8301;51.440;6.610;2022-09-13T17:00:30;23.40;99.90
16384;DHT22;8301;51.440;6.610;2022-09-13T17:02:59;23.40;99.90
16384;DHT22;8301;51.440;6.610;2022-09-13T17:05:26;23.40;99.90
16384;DHT22;8301;51.440;6.610;2022-09-13T17:08:03;23.30;99.90
16384;DHT22;8301;51.440;6.610;2022-09-13T17:10:30;23.20;99.90
16384;DHT22;8301;51.440;6.610;2022-09-13T17:12:59;23.10;99.90
16384;DHT22;8301;51.440;6.610;2022-09-13T17:15:31;23.10;99.90
16384;DHT22;8301;51.440;6.610;2022-09-13T17:18:00;23.10;99.90
16384;DHT22;8301;51.440;6.610;2022-09-13T17:20:27;23.10;99.90
16384;DHT22;8301;51.440;6.610;2022-09-13T17:22:53;23.00;99.90
16384;DHT22;8301;51.440;6.610;2022-09-13T17:25:22;22.90;99.90
16384;DHT22;8301;51.440;6.610;2022-09-13T17:30:25;22.90;99.90
16384;DHT22;8301;51.440;6.610;2022-09-13T17:32:52;22.90;99.90
16384;DHT22;8301;51.440;6.610;2022-09-13T17:35:18;22.80;99.90
16384;DHT22;8301;51.440;6.610;2022-09-13T17:37:58;22.80;99.90
16384;DHT22;8301;51.440;6.610;2022-09-13T17:40:26;22.80;99.90
16384;DHT22;8301;51.440;6.610;2022-09-13T17:42:53;22.80;99.90
16384;DHT22;8301;51.440;6.610;2022-09-13T17:45:20;22.70;99.90
16384;DHT22;8301;51.440;6.610;2022-09-13T17:47:47;22.70;99.90
16384;DHT22;8301;51.440;6.610;2022-09-13T17:50:16;22.70;99.90
16384;DHT22;8301;51.440;6.610;2022-09-13T17:52:43;22.70;99.90
16384;DHT22;8301;51.440;6.610;2022-09-13T17:55:09;22.60;99.90
16384;DHT22;8301;51.440;6.610;2022-09-13T17:57:38;22.60;99.90
16384;DHT22;8301;51.440;6.610;2022-09-13T18:00:08;22.50;99.90
16384;DHT22;8301;51.440;6.610;2022-09-13T18:02:45;22.50;99.90
16384;DHT22;8301;51.440;6.610;2022-09-13T18:05:23;22.50;99.90
16384;DHT22;8301;51.440;6.610;2022-09-13T18:07:49;22.40;99.90
16384;DHT22;8301;51.440;6.610;2022-09-13T18:10:16;22.50;99.90
16384;DHT22;8301;51.440;6.610;2022-09-13T18:12:50;22.40;99.90
16384;DHT22;8301;51.440;6.610;2022-09-13T18:15:19;22.30;99.90
16384;DHT22;8301;51.440;6.610;2022-09-13T18:17:45;22.30;99.90
16384;DHT22;8301;51.440;6.610;2022-09-13T18:20:14;22.30;99.90
16384;DHT22;8301;51.440;6.610;2022-09-13T18:22:48;22.30;99.90
16384;DHT22;8301;51.440;6.610;2022-09-13T18:25:15;22.20;99.90
16384;DHT22;8301;51.440;6.610;2022-09-13T18:27:42;22.20;99.90
16384;DHT22;8301;51.440;6.610;2022-09-13T18:30:09;22.20;99.90
16384;DHT22;8301;51.440;6.610;2022-09-13T18:32:35;22.10;99.90
16384;DHT22;8301;51.440;6.610;2022-09-13T18:35:02;22.10;99.90
16384;DHT22;8301;51.440;6.610;2022-09-13T18:37:29;22.00;99.90
16384;DHT22;8301;51.440;6.610;2022-09-13T18:39:58;22.00;99.90
16384;DHT22;8301;51.440;6.610;2022-09-13T18:42:32;21.90;99.90
16384;DHT22;8301;51.440;6.610;2022-09-13T18:45:06;21.80;99.90
16384;DHT22;8301;51.440;6.610;2022-09-13T18:47:33;21.80;99.90
16384;DHT22;8301;51.440;6.610;2022-09-13T18:50:00;21.70;99.90
16384;DHT22;8301;51.440;6.610;2022-09-13T18:52:27;21.70;99.90
16384;DHT22;8301;51.440;6.610;2022-09-13T18:54:54;21.60;99.90
16384;DHT22;8301;51.440;6.610;2022-09-13T18:57:20;21.60;99.90
16384;DHT22;8301;51.440;6.610;2022-09-13T18:59:48;21.50;99.90
16384;DHT22;8301;51.440;6.610;2022-09-13T19:02:18;21.50;99.90
16384;DHT22;8301;51.440;6.610;2022-09-13T19:07:15;21.50;99.90
16384;DHT22;8301;51.440;6.610;2022-09-13T19:09:42;21.50;99.90
16384;DHT22;8301;51.440;6.610;2022-09-13T19:12:10;21.50;99.90
16384;DHT22;8301;51.440;6.610;2022-09-13T19:14:36;21.50;99.90
16384;DHT22;8301;51.440;6.610;2022-09-13T19:17:03;21.40;99.90
16384;DHT22;8301;51.440;6.610;2022-09-13T19:19:31;21.50;99.90
16384;DHT22;8301;51.440;6.610;2022-09-13T19:22:00;21.40;99.90
16384;DHT22;8301;51.440;6.610;2022-09-13T19:24:27;21.40;99.90
16384;DHT22;8301;51.440;6.610;2022-09-13T19:26:54;21.40;99.90
16384;DHT22;8301;51.440;6.610;2022-09-13T19:29:22;21.30;99.90
16384;DHT22;8301;51.440;6.610;2022-09-13T19:31:51;21.30;99.90
16384;DHT22;8301;51.440;6.610;2022-09-13T19:34:20;21.20;99.90
16384;DHT22;8301;51.440;6.610;2022-09-13T19:36:48;21.10;99.90
16384;DHT22;8301;51.440;6.610;2022-09-13T19:39:17;21.00;99.90
16384;DHT22;8301;51.440;6.610;2022-09-13T19:41:45;20.90;99.90
16384;DHT22;8301;51.440;6.610;2022-09-13T19:44:21;20.90;99.90
16384;DHT22;8301;51.440;6.610;2022-09-13T19:46:49;20.80;99.90
16384;DHT22;8301;51.440;6.610;2022-09-13T19:49:22;20.70;99.90
16384;DHT22;8301;51.440;6.610;2022-09-13T19:51:53;20.60;99.90
16384;DHT22;8301;51.440;6.610;2022-09-13T19:54:20;20.60;99.90
16384;DHT22;8301;51.440;6.610;2022-09-13T19:56:46;20.40;99.90
16384;DHT22;8301;51.440;6.610;2022-09-13T19:59:15;20.40;99.90
16384;DHT22;8301;51.440;6.610;2022-09-13T20:01:44;20.20;99.90
16384;DHT22;8301;51.440;6.610;2022-09-13T20:04:17;20.10;99.90
16384;DHT22;8301;51.440;6.610;2022-09-13T20:06:50;20.00;99.90
16384;DHT22;8301;51.440;6.610;2022-09-13T20:09:11;19.80;99.90
16384;DHT22;8301;51.440;6.610;2022-09-13T20:11:38;19.70;99.90
16384;DHT22;8301;51.440;6.610;2022-09-13T20:14:07;19.70;99.90
16384;DHT22;8301;51.440;6.610;2022-09-13T20:16:35;19.60;99.90
16384;DHT22;8301;51.440;6.610;2022-09-13T20:19:03;19.60;99.90
16384;DHT22;8301;51.440;6.610;2022-09-13T20:21:30;19.50;99.90
16384;DHT22;8301;51.440;6.610;2022-09-13T20:24:03;19.40;99.90
16384;DHT22;8301;51.440;6.610;2022-09-13T20:26:28;19.40;99.90
16384;DHT22;8301;51.440;6.610;2022-09-13T20:28:56;19.40;99.90
16384;DHT22;8301;51.440;6.610;2022-09-13T20:31:23;19.30;99.90
16384;DHT22;8301;51.440;6.610;2022-09-13T20:33:53;19.20;99.90
16384;DHT22;8301;51.440;6.610;2022-09-13T20:36:20;19.20;99.90
16384;DHT22;8301;51.440;6.610;2022-09-13T20:38:49;19.10;99.90
16384;DHT22;8301;51.440;6.610;2022-09-13T20:41:18;19.10;99.90
16384;DHT22;8301;51.440;6.610;2022-09-13T20:43:45;19.10;99.90
16384;DHT22;8301;51.440;6.610;2022-09-13T20:46:13;19.10;99.90
16384;DHT22;8301;51.440;6.610;2022-09-13T20:48:40;19.10;99.90
16384;DHT22;8301;51.440;6.610;2022-09-13T20:51:10;19.00;99.90
16384;DHT22;8301;51.440;6.610;2022-09-13T20:53:37;19.00;99.90
16384;DHT22;8301;51.440;6.610;2022-09-13T20:56:05;19.00;99.90
16384;DHT22;8301;51.440;6.610;2022-09-13T20:58:33;19.00;99.90
16384;DHT22;8301;51.440;6.610;2022-09-13T21:01:06;19.00;99.90
16384;DHT22;8301;51.440;6.610;2022-09-13T21:03:29;19.00;99.90
16384;DHT22;8301;51.440;6.610;2022-09-13T21:05:58;19.00;99.90
16384;DHT22;8301;51.440;6.610;2022-09-13T21:08:24;18.90;99.90
16384;DHT22;8301;51.440;6.610;2022-09-13T21:11:11;18.90;99.90
16384;DHT22;8301;51.440;6.610;2022-09-13T21:13:35;18.90;99.90
16384;DHT22;8301;51.440;6.610;2022-09-13T21:16:06;18.90;99.90
16384;DHT22;8301;51.440;6.610;2022-09-13T21:18:34;18.90;99.90
16384;DHT22;8301;51.440;6.610;2022-09-13T21:21:01;18.90;99.90
16384;DHT22;8301;51.440;6.610;2022-09-13T21:23:29;18.90;99.90
16384;DHT22;8301;51.440;6.610;2022-09-13T21:26:03;18.90;99.90
16384;DHT22;8301;51.440;6.610;2022-09-13T21:28:29;18.90;99.90
16384;DHT22;8301;51.440;6.610;2022-09-13T21:30:57;18.90;99.90
16384;DHT22;8301;51.440;6.610;2022-09-13T21:33:24;18.90;99.90
16384;DHT22;8301;51.440;6.610;2022-09-13T21:35:54;18.80;99.90
16384;DHT22;8301;51.440;6.610;2022-09-13T21:38:20;18.80;99.90
16384;DHT22;8301;51.440;6.610;2022-09-13T21:40:57;18.80;99.90
16384;DHT22;8301;51.440;6.610;2022-09-13T21:43:25;18.80;99.90